AKDT,Max TemperatureF,Mean TemperatureF,Min TemperatureF,Max Dew PointF,MeanDew PointF,Min DewpointF,Max Humidity, Mean Humidity, Min Humidity, Max Sea Level PressureIn, Mean Sea Level PressureIn, Min Sea Level PressureIn, Max VisibilityMiles, Mean VisibilityMiles, Min VisibilityMiles, Max Wind SpeedMPH, Mean Wind SpeedMPH, Max Gust SpeedMPH,PrecipitationIn, CloudCover, Events, WindDirDegrees
2012-10-1,39,32,24,30,23,19,86,75,60,30.02,29.96,29.86,10,10,10,24,8,31,0.00,5,,129
2012-10-2,46,42,37,39,37,34,93,81,71,29.85,29.82,29.80,10,10,10,24,17,32,0.00,6,,133
2012-10-3,48,44,41,43,39,36,93,83,71,29.95,29.89,29.80,10,10,9,15,11,22,0.00,7,,124
2012-10-4,50,44,39,46,39,32,93,83,61,29.80,29.66,29.58,10,10,8,24,11,33,0.00,8,,124
2012-10-5,44,40,35,37,36,34,93,81,71,29.78,29.72,29.68,10,10,10,31,16,46,0.00,6,,138
2012-10-6,44,40,37,37,34,30,93,76,61,30.07,29.88,29.71,10,10,10,24,18,33,0.00,5,,160
2012-10-7,39,34,30,34,31,28,100,82,70,30.31,30.22,30.06,10,10,4,17,9,23,0.00,7,,233
2012-10-8,37,32,26,34,29,21,93,86,70,30.54,30.40,30.30,10,10,9,13,5,17,0.00,6,,321
2012-10-9,37,28,19,21,18,14,93,76,48,30.58,30.55,30.53,10,10,10,9,5,,0.00,0,,328
2012-10-10,35,24,12,21,17,10,93,75,44,30.54,30.46,30.37,10,10,10,8,2,,0.00,0,,286
2012-10-11,33,22,10,27,19,9,100,81,60,30.36,30.12,29.95,10,10,7,13,3,,0.00,2,,316
2012-10-12,33,26,19,23,18,16,100,75,48,29.94,29.85,29.78,10,10,10,22,7,28,0.00,2,,338
2012-10-13,33,26,19,25,21,12,93,77,56,29.81,29.71,29.60,10,10,10,9,5,,0.00,7,,327
2012-10-14,30,26,19,27,21,14,100,81,68,29.60,29.53,29.50,10,10,3,15,6,20,0.00,6,,330
2012-10-15,26,19,12,19,12,9,93,76,51,29.61,29.57,29.54,10,10,10,18,7,23,0.00,0,,313
2012-10-16,28,24,19,19,15,12,86,69,59,29.92,29.75,29.60,10,10,10,23,16,30,0.00,4,,329
2012-10-17,28,24,19,18,17,14,86,74,59,30.14,30.04,29.92,10,10,10,17,12,22,0.00,6,,319
2012-10-18,32,24,17,23,18,12,93,77,55,30.27,30.21,30.15,10,10,10,16,8,,0.00,2,,307
2012-10-19,28,26,23,21,18,16,86,75,64,30.43,30.35,30.27,10,10,9,12,8,,0.00,8,,198
2012-10-20,30,27,24,28,24,21,93,88,86,30.52,30.49,30.43,10,10,8,12,6,,0.00,8,,123
2012-10-21,30,26,21,27,19,12,86,76,68,30.47,30.36,30.26,10,10,10,22,16,31,0.00,7,,105
2012-10-22,28,24,21,21,19,16,93,81,74,30.58,30.41,30.27,10,8,1,18,12,25,0.00,8,,122
2012-10-23,26,19,12,25,19,9,100,89,80,30.75,30.68,30.60,10,4,0,5,1,,0.00,8,,126
2012-10-24,21,14,6,19,9,3,100,89,79,30.78,30.75,30.71,10,10,2,6,2,,0.00,1,,144
2012-10-25,28,22,15,21,18,12,93,79,69,30.71,30.60,30.50,10,10,9,12,7,,0.00,6,,153
2012-10-26,32,24,17,27,23,16,100,85,74,30.50,30.44,30.38,10,10,5,13,4,,0.00,4,,128
2012-10-27,28,22,15,27,20,12,100,93,86,30.40,30.34,30.29,10,3,0,10,2,,0.00,8,,305
2012-10-28,28,24,21,27,25,19,100,94,86,30.31,30.28,30.19,10,5,0,16,9,18,0.00,8,,320
2012-10-29,28,22,15,28,16,9,100,80,68,30.33,30.24,30.19,10,9,2,25,11,30,0.00,4,,321
2012-10-30,24,18,12,21,16,7,100,79,63,30.46,30.39,30.33,10,10,10,21,11,26,0.00,5,,337
2012-10-31,21,16,10,12,9,3,79,71,63,30.45,30.41,30.38,10,10,10,21,12,28,0.00,0,,326